sensor_id;sensor_type;location;lat;lon;timestamp;P1;durP1;ratioP1;P2;durP2;ratioP2
842;SDS011;407;48.884;9.126;2023-08-06T00:00:07;7.85;;;3.40;;
842;SDS011;407;48.884;9.126;2023-08-06T00:02:33;6.63;;;2.63;;
842;SDS011;407;48.884;9.126;2023-08-06T00:04:59;7.60;;;2.80;;
842;SDS011;407;48.884;9.126;2023-08-06T00:07:24;7.90;;;3.00;;
842;SDS011;407;48.884;9.126;2023-08-06T00:09:50;8.77;;;3.33;;
842;SDS011;407;48.884;9.126;2023-08-06T00:12:15;6.90;;;2.83;;
842;SDS011;407;48.884;9.126;2023-08-06T00:14:42;6.73;;;2.80;;
842;SDS011;407;48.884;9.126;2023-08-06T00:17:08;7.93;;;2.95;;
842;SDS011;407;48.884;9.126;2023-08-06T00:19:34;7.33;;;3.00;;
842;SDS011;407;48.884;9.126;2023-08-06T00:21:59;6.80;;;3.03;;
842;SDS011;407;48.884;9.126;2023-08-06T00:24:26;8.10;;;2.70;;
842;SDS011;407;48.884;9.126;2023-08-06T00:26:52;6.97;;;2.77;;
842;SDS011;407;48.884;9.126;2023-08-06T00:29:18;7.80;;;3.30;;
842;SDS011;407;48.884;9.126;2023-08-06T00:31:43;6.50;;;2.50;;
842;SDS011;407;48.884;9.126;2023-08-06T00:34:09;6.68;;;2.60;;
842;SDS011;407;48.884;9.126;2023-08-06T00:36:35;7.15;;;2.72;;
842;SDS011;407;48.884;9.126;2023-08-06T00:39:01;6.30;;;2.53;;
842;SDS011;407;48.884;9.126;2023-08-06T00:41:27;6.68;;;2.85;;
842;SDS011;407;48.884;9.126;2023-08-06T00:43:53;6.77;;;2.77;;
842;SDS011;407;48.884;9.126;2023-08-06T00:46:18;6.80;;;2.50;;
842;SDS011;407;48.884;9.126;2023-08-06T00:48:44;7.47;;;3.30;;
842;SDS011;407;48.884;9.126;2023-08-06T00:51:10;5.67;;;2.20;;
842;SDS011;407;48.884;9.126;2023-08-06T00:53:37;7.07;;;2.80;;
842;SDS011;407;48.884;9.126;2023-08-06T00:56:04;6.90;;;2.30;;
842;SDS011;407;48.884;9.126;2023-08-06T00:58:30;5.95;;;2.20;;
842;SDS011;407;48.884;9.126;2023-08-06T01:00:55;6.95;;;2.80;;
842;SDS011;407;48.884;9.126;2023-08-06T01:03:21;10.27;;;3.00;;
842;SDS011;407;48.884;9.126;2023-08-06T01:05:46;7.00;;;2.60;;
842;SDS011;407;48.884;9.126;2023-08-06T01:08:18;7.27;;;2.63;;
842;SDS011;407;48.884;9.126;2023-08-06T01:11:26;7.25;;;2.40;;
842;SDS011;407;48.884;9.126;2023-08-06T01:14:18;5.70;;;2.10;;
842;SDS011;407;48.884;9.126;2023-08-06T01:16:46;10.02;;;2.92;;
842;SDS011;407;48.884;9.126;2023-08-06T01:19:16;6.80;;;2.60;;
842;SDS011;407;48.884;9.126;2023-08-06T01:21:43;12.63;;;2.60;;
842;SDS011;407;48.884;9.126;2023-08-06T01:24:08;6.23;;;2.53;;
842;SDS011;407;48.884;9.126;2023-08-06T01:26:39;7.10;;;1.97;;
842;SDS011;407;48.884;9.126;2023-08-06T01:29:12;5.82;;;1.90;;
842;SDS011;407;48.884;9.126;2023-08-06T01:31:43;6.03;;;2.10;;
842;SDS011;407;48.884;9.126;2023-08-06T01:34:13;6.07;;;2.10;;
842;SDS011;407;48.884;9.126;2023-08-06T01:36:42;6.35;;;2.10;;
842;SDS011;407;48.884;9.126;2023-08-06T01:39:09;6.55;;;1.98;;
842;SDS011;407;48.884;9.126;2023-08-06T01:41:35;5.00;;;2.00;;
842;SDS011;407;48.884;9.126;2023-08-06T01:44:00;6.25;;;2.13;;
842;SDS011;407;48.884;9.126;2023-08-06T01:46:26;5.85;;;1.77;;
842;SDS011;407;48.884;9.126;2023-08-06T01:48:51;6.70;;;2.17;;
842;SDS011;407;48.884;9.126;2023-08-06T01:51:17;9.50;;;2.30;;
842;SDS011;407;48.884;9.126;2023-08-06T01:53:42;6.20;;;2.20;;
842;SDS011;407;48.884;9.126;2023-08-06T01:56:08;7.67;;;2.30;;
842;SDS011;407;48.884;9.126;2023-08-06T01:58:33;6.03;;;2.10;;
842;SDS011;407;48.884;9.126;2023-08-06T02:00:59;6.82;;;2.13;;
842;SDS011;407;48.884;9.126;2023-08-06T02:03:26;6.80;;;1.90;;
842;SDS011;407;48.884;9.126;2023-08-06T02:05:52;5.65;;;1.90;;
842;SDS011;407;48.884;9.126;2023-08-06T02:08:17;6.93;;;1.90;;
842;SDS011;407;48.884;9.126;2023-08-06T02:10:43;7.63;;;2.00;;
842;SDS011;407;48.884;9.126;2023-08-06T02:13:09;5.60;;;1.77;;
842;SDS011;407;48.884;9.126;2023-08-06T02:15:35;6.53;;;1.90;;
842;SDS011;407;48.884;9.126;2023-08-06T02:18:00;4.80;;;1.53;;
842;SDS011;407;48.884;9.126;2023-08-06T02:20:25;4.85;;;1.55;;
842;SDS011;407;48.884;9.126;2023-08-06T02:22:51;6.30;;;1.85;;
842;SDS011;407;48.884;9.126;2023-08-06T02:25:16;5.77;;;1.70;;
842;SDS011;407;48.884;9.126;2023-08-06T02:27:42;9.87;;;2.00;;
842;SDS011;407;48.884;9.126;2023-08-06T02:30:07;7.00;;;1.90;;
842;SDS011;407;48.884;9.126;2023-08-06T02:32:33;5.40;;;1.50;;
842;SDS011;407;48.884;9.126;2023-08-06T02:35:01;4.80;;;1.60;;
842;SDS011;407;48.884;9.126;2023-08-06T02:37:27;7.37;;;2.00;;
842;SDS011;407;48.884;9.126;2023-08-06T02:39:52;5.00;;;1.70;;
842;SDS011;407;48.884;9.126;2023-08-06T02:42:19;5.10;;;1.70;;
842;SDS011;407;48.884;9.126;2023-08-06T02:44:44;6.30;;;1.50;;
842;SDS011;407;48.884;9.126;2023-08-06T02:47:10;6.77;;;1.50;;
842;SDS011;407;48.884;9.126;2023-08-06T02:49:35;5.88;;;1.50;;
842;SDS011;407;48.884;9.126;2023-08-06T02:52:01;5.75;;;1.80;;
842;SDS011;407;48.884;9.126;2023-08-06T02:54:26;5.43;;;1.83;;
842;SDS011;407;48.884;9.126;2023-08-06T02:56:52;5.87;;;1.80;;
842;SDS011;407;48.884;9.126;2023-08-06T02:59:17;6.33;;;1.80;;
842;SDS011;407;48.884;9.126;2023-08-06T03:01:43;5.53;;;1.60;;
842;SDS011;407;48.884;9.126;2023-08-06T03:04:09;7.80;;;1.70;;
842;SDS011;407;48.884;9.126;2023-08-06T03:06:34;5.90;;;1.90;;
842;SDS011;407;48.884;9.126;2023-08-06T03:09:00;5.40;;;1.60;;
842;SDS011;407;48.884;9.126;2023-08-06T03:11:25;11.60;;;2.00;;
842;SDS011;407;48.884;9.126;2023-08-06T03:13:51;5.60;;;1.50;;
842;SDS011;407;48.884;9.126;2023-08-06T03:16:16;5.60;;;1.70;;
842;SDS011;407;48.884;9.126;2023-08-06T03:18:42;5.87;;;1.60;;
842;SDS011;407;48.884;9.126;2023-08-06T03:21:07;6.47;;;1.53;;
842;SDS011;407;48.884;9.126;2023-08-06T03:23:33;6.63;;;1.80;;
842;SDS011;407;48.884;9.126;2023-08-06T03:26:02;5.50;;;1.53;;
842;SDS011;407;48.884;9.126;2023-08-06T03:28:28;5.82;;;1.63;;
842;SDS011;407;48.884;9.126;2023-08-06T03:30:59;5.90;;;1.70;;
842;SDS011;407;48.884;9.126;2023-08-06T03:33:26;6.00;;;1.35;;
842;SDS011;407;48.884;9.126;2023-08-06T03:35:51;6.20;;;1.80;;
842;SDS011;407;48.884;9.126;2023-08-06T03:38:17;5.00;;;1.40;;
842;SDS011;407;48.884;9.126;2023-08-06T03:40:42;5.80;;;1.83;;
842;SDS011;407;48.884;9.126;2023-08-06T03:43:08;5.30;;;1.52;;
842;SDS011;407;48.884;9.126;2023-08-06T03:45:33;5.53;;;1.67;;
842;SDS011;407;48.884;9.126;2023-08-06T03:47:59;5.30;;;1.50;;
842;SDS011;407;48.884;9.126;2023-08-06T03:50:24;5.03;;;1.23;;
842;SDS011;407;48.884;9.126;2023-08-06T03:52:50;5.33;;;1.50;;
842;SDS011;407;48.884;9.126;2023-08-06T03:55:16;5.68;;;1.50;;
842;SDS011;407;48.884;9.126;2023-08-06T03:57:41;6.72;;;1.83;;
842;SDS011;407;48.884;9.126;2023-08-06T04:00:07;5.37;;;1.43;;
842;SDS011;407;48.884;9.126;2023-08-06T04:02:33;5.93;;;1.67;;
842;SDS011;407;48.884;9.126;2023-08-06T04:04:58;5.13;;;1.40;;
842;SDS011;407;48.884;9.126;2023-08-06T04:07:24;5.75;;;1.80;;
842;SDS011;407;48.884;9.126;2023-08-06T04:10:23;6.32;;;1.60;;
842;SDS011;407;48.884;9.126;2023-08-06T04:12:42;5.00;;;1.33;;
842;SDS011;407;48.884;9.126;2023-08-06T04:15:09;5.75;;;1.80;;
842;SDS011;407;48.884;9.126;2023-08-06T04:17:34;6.10;;;1.40;;
842;SDS011;407;48.884;9.126;2023-08-06T04:20:00;5.40;;;1.90;;
842;SDS011;407;48.884;9.126;2023-08-06T04:22:26;6.00;;;1.63;;
842;SDS011;407;48.884;9.126;2023-08-06T04:24:52;5.13;;;1.40;;
842;SDS011;407;48.884;9.126;2023-08-06T04:27:18;5.80;;;1.77;;
842;SDS011;407;48.884;9.126;2023-08-06T04:29:45;6.47;;;1.55;;
842;SDS011;407;48.884;9.126;2023-08-06T04:32:10;5.40;;;1.70;;
842;SDS011;407;48.884;9.126;2023-08-06T04:34:36;6.03;;;1.73;;
842;SDS011;407;48.884;9.126;2023-08-06T04:37:02;6.47;;;1.80;;
842;SDS011;407;48.884;9.126;2023-08-06T04:39:28;5.05;;;1.15;;
842;SDS011;407;48.884;9.126;2023-08-06T04:41:55;5.40;;;1.60;;
842;SDS011;407;48.884;9.126;2023-08-06T04:44:23;5.10;;;1.10;;
842;SDS011;407;48.884;9.126;2023-08-06T04:46:49;6.10;;;1.80;;
842;SDS011;407;48.884;9.126;2023-08-06T04:49:14;6.10;;;1.55;;
842;SDS011;407;48.884;9.126;2023-08-06T04:51:40;5.30;;;1.70;;
842;SDS011;407;48.884;9.126;2023-08-06T04:54:05;7.00;;;1.70;;
842;SDS011;407;48.884;9.126;2023-08-06T04:56:31;5.77;;;1.40;;
842;SDS011;407;48.884;9.126;2023-08-06T04:58:57;6.07;;;1.65;;
842;SDS011;407;48.884;9.126;2023-08-06T05:01:23;5.30;;;1.40;;
842;SDS011;407;48.884;9.126;2023-08-06T05:03:49;4.93;;;1.17;;
842;SDS011;407;48.884;9.126;2023-08-06T05:06:14;4.97;;;1.20;;
842;SDS011;407;48.884;9.126;2023-08-06T05:08:40;5.47;;;1.50;;
842;SDS011;407;48.884;9.126;2023-08-06T05:11:18;5.07;;;1.60;;
842;SDS011;407;48.884;9.126;2023-08-06T05:13:43;5.50;;;1.40;;
842;SDS011;407;48.884;9.126;2023-08-06T05:16:09;4.80;;;1.20;;
842;SDS011;407;48.884;9.126;2023-08-06T05:18:34;5.10;;;1.40;;
842;SDS011;407;48.884;9.126;2023-08-06T05:21:02;6.38;;;1.40;;
842;SDS011;407;48.884;9.126;2023-08-06T05:23:28;4.60;;;1.20;;
842;SDS011;407;48.884;9.126;2023-08-06T05:25:53;4.70;;;1.00;;
842;SDS011;407;48.884;9.126;2023-08-06T05:28:19;5.30;;;1.50;;
842;SDS011;407;48.884;9.126;2023-08-06T05:30:44;4.70;;;1.00;;
842;SDS011;407;48.884;9.126;2023-08-06T05:33:10;4.40;;;1.10;;
842;SDS011;407;48.884;9.126;2023-08-06T05:35:35;6.10;;;1.00;;
842;SDS011;407;48.884;9.126;2023-08-06T05:38:01;5.33;;;1.30;;
842;SDS011;407;48.884;9.126;2023-08-06T05:40:26;8.80;;;1.40;;
842;SDS011;407;48.884;9.126;2023-08-06T05:42:55;5.20;;;1.00;;
842;SDS011;407;48.884;9.126;2023-08-06T05:45:20;4.60;;;1.13;;
842;SDS011;407;48.884;9.126;2023-08-06T05:47:47;4.43;;;0.90;;
842;SDS011;407;48.884;9.126;2023-08-06T05:50:13;5.00;;;0.85;;
842;SDS011;407;48.884;9.126;2023-08-06T05:52:40;6.57;;;1.27;;
842;SDS011;407;48.884;9.126;2023-08-06T05:55:06;5.90;;;1.30;;
842;SDS011;407;48.884;9.126;2023-08-06T05:57:32;4.20;;;0.80;;
842;SDS011;407;48.884;9.126;2023-08-06T05:59:57;4.53;;;0.80;;
842;SDS011;407;48.884;9.126;2023-08-06T06:02:23;4.60;;;0.90;;
842;SDS011;407;48.884;9.126;2023-08-06T06:04:50;5.30;;;0.87;;
842;SDS011;407;48.884;9.126;2023-08-06T06:07:15;6.30;;;0.90;;
842;SDS011;407;48.884;9.126;2023-08-06T06:09:41;4.40;;;0.87;;
842;SDS011;407;48.884;9.126;2023-08-06T06:12:06;5.87;;;0.90;;
842;SDS011;407;48.884;9.126;2023-08-06T06:14:33;4.03;;;0.60;;
842;SDS011;407;48.884;9.126;2023-08-06T06:16:58;4.10;;;0.90;;
842;SDS011;407;48.884;9.126;2023-08-06T06:19:25;4.40;;;0.80;;
842;SDS011;407;48.884;9.126;2023-08-06T06:21:50;4.60;;;0.80;;
842;SDS011;407;48.884;9.126;2023-08-06T06:24:16;7.60;;;0.80;;
842;SDS011;407;48.884;9.126;2023-08-06T06:26:41;4.97;;;0.80;;
842;SDS011;407;48.884;9.126;2023-08-06T06:29:07;3.80;;;0.43;;
842;SDS011;407;48.884;9.126;2023-08-06T06:31:32;4.10;;;0.70;;
842;SDS011;407;48.884;9.126;2023-08-06T06:33:58;4.20;;;0.77;;
842;SDS011;407;48.884;9.126;2023-08-06T06:36:23;6.00;;;0.70;;
842;SDS011;407;48.884;9.126;2023-08-06T06:38:49;8.00;;;0.80;;
842;SDS011;407;48.884;9.126;2023-08-06T06:41:15;3.90;;;0.70;;
842;SDS011;407;48.884;9.126;2023-08-06T06:43:41;5.10;;;0.70;;
842;SDS011;407;48.884;9.126;2023-08-06T06:46:07;3.90;;;0.60;;
842;SDS011;407;48.884;9.126;2023-08-06T06:48:32;4.10;;;0.73;;
842;SDS011;407;48.884;9.126;2023-08-06T06:50:59;4.07;;;0.60;;
842;SDS011;407;48.884;9.126;2023-08-06T06:53:25;6.30;;;1.27;;
842;SDS011;407;48.884;9.126;2023-08-06T06:55:54;3.70;;;0.50;;
842;SDS011;407;48.884;9.126;2023-08-06T06:58:29;4.20;;;0.60;;
842;SDS011;407;48.884;9.126;2023-08-06T07:00:56;3.75;;;0.50;;
842;SDS011;407;48.884;9.126;2023-08-06T07:03:22;3.80;;;0.60;;
842;SDS011;407;48.884;9.126;2023-08-06T07:05:48;4.20;;;0.60;;
842;SDS011;407;48.884;9.126;2023-08-06T07:08:14;5.50;;;0.70;;
842;SDS011;407;48.884;9.126;2023-08-06T07:10:43;4.32;;;0.50;;
842;SDS011;407;48.884;9.126;2023-08-06T07:13:08;3.60;;;0.40;;
842;SDS011;407;48.884;9.126;2023-08-06T07:15:34;5.20;;;0.70;;
842;SDS011;407;48.884;9.126;2023-08-06T07:18:00;3.70;;;0.40;;
842;SDS011;407;48.884;9.126;2023-08-06T07:20:26;4.70;;;0.60;;
842;SDS011;407;48.884;9.126;2023-08-06T07:22:54;3.70;;;0.40;;
842;SDS011;407;48.884;9.126;2023-08-06T07:25:19;3.60;;;0.30;;
842;SDS011;407;48.884;9.126;2023-08-06T07:27:45;3.70;;;0.50;;
842;SDS011;407;48.884;9.126;2023-08-06T07:30:10;3.80;;;0.43;;
842;SDS011;407;48.884;9.126;2023-08-06T07:32:37;3.70;;;0.40;;
842;SDS011;407;48.884;9.126;2023-08-06T07:35:03;3.78;;;0.45;;
842;SDS011;407;48.884;9.126;2023-08-06T07:37:29;3.60;;;0.40;;
842;SDS011;407;48.884;9.126;2023-08-06T07:39:55;3.60;;;0.40;;
842;SDS011;407;48.884;9.126;2023-08-06T07:42:21;3.60;;;0.50;;
842;SDS011;407;48.884;9.126;2023-08-06T07:44:51;4.10;;;0.50;;
842;SDS011;407;48.884;9.126;2023-08-06T07:47:21;3.80;;;0.40;;
842;SDS011;407;48.884;9.126;2023-08-06T07:49:47;3.60;;;0.30;;
842;SDS011;407;48.884;9.126;2023-08-06T07:52:13;5.30;;;0.40;;
842;SDS011;407;48.884;9.126;2023-08-06T07:54:38;3.70;;;0.40;;
842;SDS011;407;48.884;9.126;2023-08-06T07:57:04;3.80;;;0.50;;
842;SDS011;407;48.884;9.126;2023-08-06T07:59:30;3.70;;;0.50;;
842;SDS011;407;48.884;9.126;2023-08-06T08:01:55;3.60;;;0.40;;
842;SDS011;407;48.884;9.126;2023-08-06T08:04:21;3.80;;;0.40;;
842;SDS011;407;48.884;9.126;2023-08-06T08:06:46;3.70;;;0.50;;
842;SDS011;407;48.884;9.126;2023-08-06T08:09:12;3.77;;;0.47;;
842;SDS011;407;48.884;9.126;2023-08-06T08:11:39;3.75;;;0.50;;
842;SDS011;407;48.884;9.126;2023-08-06T08:14:05;3.67;;;0.38;;
842;SDS011;407;48.884;9.126;2023-08-06T08:16:30;3.80;;;0.50;;
842;SDS011;407;48.884;9.126;2023-08-06T08:18:56;3.70;;;0.40;;
842;SDS011;407;48.884;9.126;2023-08-06T08:21:22;4.40;;;0.40;;
842;SDS011;407;48.884;9.126;2023-08-06T08:23:49;3.80;;;0.40;;
842;SDS011;407;48.884;9.126;2023-08-06T08:26:15;4.30;;;0.50;;
842;SDS011;407;48.884;9.126;2023-08-06T08:28:40;3.90;;;0.50;;
842;SDS011;407;48.884;9.126;2023-08-06T08:31:09;3.90;;;0.40;;
842;SDS011;407;48.884;9.126;2023-08-06T08:33:36;4.00;;;0.40;;
842;SDS011;407;48.884;9.126;2023-08-06T08:36:02;3.80;;;0.40;;
842;SDS011;407;48.884;9.126;2023-08-06T08:38:28;5.20;;;0.40;;
842;SDS011;407;48.884;9.126;2023-08-06T08:40:53;3.80;;;0.30;;
842;SDS011;407;48.884;9.126;2023-08-06T08:43:23;3.90;;;0.40;;
842;SDS011;407;48.884;9.126;2023-08-06T08:45:52;3.80;;;0.40;;
842;SDS011;407;48.884;9.126;2023-08-06T08:48:24;3.90;;;0.40;;
842;SDS011;407;48.884;9.126;2023-08-06T08:50:50;4.80;;;0.40;;
842;SDS011;407;48.884;9.126;2023-08-06T08:53:16;3.80;;;0.30;;
842;SDS011;407;48.884;9.126;2023-08-06T08:55:43;3.70;;;0.30;;
842;SDS011;407;48.884;9.126;2023-08-06T08:58:12;3.70;;;0.40;;
842;SDS011;407;48.884;9.126;2023-08-06T09:00:38;3.70;;;0.40;;
842;SDS011;407;48.884;9.126;2023-08-06T09:03:06;4.10;;;0.40;;
842;SDS011;407;48.884;9.126;2023-08-06T09:05:33;3.70;;;0.30;;
842;SDS011;407;48.884;9.126;2023-08-06T09:08:01;3.70;;;0.40;;
842;SDS011;407;48.884;9.126;2023-08-06T09:10:29;3.70;;;0.40;;
842;SDS011;407;48.884;9.126;2023-08-06T09:12:56;3.80;;;0.47;;
842;SDS011;407;48.884;9.126;2023-08-06T09:15:25;3.60;;;0.40;;
842;SDS011;407;48.884;9.126;2023-08-06T09:17:54;3.70;;;0.40;;
842;SDS011;407;48.884;9.126;2023-08-06T09:20:21;3.80;;;0.40;;
842;SDS011;407;48.884;9.126;2023-08-06T09:22:47;3.60;;;0.40;;
842;SDS011;407;48.884;9.126;2023-08-06T09:25:23;3.60;;;0.30;;
842;SDS011;407;48.884;9.126;2023-08-06T09:27:50;8.00;;;0.50;;
842;SDS011;407;48.884;9.126;2023-08-06T09:30:32;3.60;;;0.30;;
842;SDS011;407;48.884;9.126;2023-08-06T09:33:00;3.70;;;0.40;;
842;SDS011;407;48.884;9.126;2023-08-06T09:35:29;3.60;;;0.30;;
842;SDS011;407;48.884;9.126;2023-08-06T09:37:59;3.60;;;0.30;;
842;SDS011;407;48.884;9.126;2023-08-06T09:40:32;3.70;;;0.30;;
842;SDS011;407;48.884;9.126;2023-08-06T09:42:58;3.60;;;0.30;;
842;SDS011;407;48.884;9.126;2023-08-06T09:45:28;3.70;;;0.35;;
842;SDS011;407;48.884;9.126;2023-08-06T09:47:57;3.60;;;0.30;;
842;SDS011;407;48.884;9.126;2023-08-06T09:50:23;3.60;;;0.40;;
842;SDS011;407;48.884;9.126;2023-08-06T09:52:59;3.60;;;0.40;;
842;SDS011;407;48.884;9.126;2023-08-06T09:55:25;3.75;;;0.40;;
842;SDS011;407;48.884;9.126;2023-08-06T09:57:52;3.60;;;0.40;;
842;SDS011;407;48.884;9.126;2023-08-06T10:00:19;3.80;;;0.40;;
842;SDS011;407;48.884;9.126;2023-08-06T10:02:45;3.67;;;0.30;;
842;SDS011;407;48.884;9.126;2023-08-06T10:05:11;3.70;;;0.40;;
842;SDS011;407;48.884;9.126;2023-08-06T10:07:37;3.70;;;0.50;;
842;SDS011;407;48.884;9.126;2023-08-06T10:10:06;3.70;;;0.40;;
842;SDS011;407;48.884;9.126;2023-08-06T10:12:43;6.40;;;0.60;;
842;SDS011;407;48.884;9.126;2023-08-06T10:15:15;3.80;;;0.50;;
842;SDS011;407;48.884;9.126;2023-08-06T10:17:45;3.60;;;0.30;;
842;SDS011;407;48.884;9.126;2023-08-06T10:20:13;3.60;;;0.30;;
842;SDS011;407;48.884;9.126;2023-08-06T10:22:42;3.70;;;0.30;;
842;SDS011;407;48.884;9.126;2023-08-06T10:25:09;3.70;;;0.40;;
842;SDS011;407;48.884;9.126;2023-08-06T10:27:39;3.80;;;0.50;;
842;SDS011;407;48.884;9.126;2023-08-06T10:32:59;3.80;;;0.30;;
842;SDS011;407;48.884;9.126;2023-08-06T10:35:48;3.80;;;0.40;;
842;SDS011;407;48.884;9.126;2023-08-06T10:38:18;4.20;;;0.60;;
842;SDS011;407;48.884;9.126;2023-08-06T10:43:25;3.80;;;0.40;;
842;SDS011;407;48.884;9.126;2023-08-06T10:45:52;3.90;;;0.40;;
842;SDS011;407;48.884;9.126;2023-08-06T10:48:37;3.80;;;0.40;;
842;SDS011;407;48.884;9.126;2023-08-06T10:51:07;3.88;;;0.35;;
842;SDS011;407;48.884;9.126;2023-08-06T10:53:34;4.10;;;0.60;;
842;SDS011;407;48.884;9.126;2023-08-06T10:59:04;3.80;;;0.40;;
842;SDS011;407;48.884;9.126;2023-08-06T11:01:30;3.90;;;0.50;;
842;SDS011;407;48.884;9.126;2023-08-06T11:04:01;4.10;;;0.50;;
842;SDS011;407;48.884;9.126;2023-08-06T11:06:27;4.10;;;0.80;;
842;SDS011;407;48.884;9.126;2023-08-06T11:08:53;3.90;;;0.60;;
842;SDS011;407;48.884;9.126;2023-08-06T11:11:20;4.07;;;0.68;;
842;SDS011;407;48.884;9.126;2023-08-06T11:13:49;3.80;;;0.50;;
842;SDS011;407;48.884;9.126;2023-08-06T11:16:20;4.28;;;0.60;;
842;SDS011;407;48.884;9.126;2023-08-06T11:18:50;9.20;;;0.90;;
842;SDS011;407;48.884;9.126;2023-08-06T11:21:22;3.83;;;0.50;;
842;SDS011;407;48.884;9.126;2023-08-06T11:23:49;3.90;;;0.60;;
842;SDS011;407;48.884;9.126;2023-08-06T11:26:19;4.30;;;0.63;;
842;SDS011;407;48.884;9.126;2023-08-06T11:28:45;3.90;;;0.50;;
842;SDS011;407;48.884;9.126;2023-08-06T11:31:18;3.90;;;0.50;;
842;SDS011;407;48.884;9.126;2023-08-06T11:33:47;4.00;;;0.70;;
842;SDS011;407;48.884;9.126;2023-08-06T11:36:14;4.32;;;0.60;;
842;SDS011;407;48.884;9.126;2023-08-06T11:38:40;4.00;;;0.60;;
842;SDS011;407;48.884;9.126;2023-08-06T11:41:06;4.20;;;0.80;;
842;SDS011;407;48.884;9.126;2023-08-06T11:43:32;4.50;;;0.93;;
842;SDS011;407;48.884;9.126;2023-08-06T11:45:58;3.80;;;0.50;;
842;SDS011;407;48.884;9.126;2023-08-06T11:48:25;5.70;;;0.60;;
842;SDS011;407;48.884;9.126;2023-08-06T11:50:53;4.20;;;0.90;;
842;SDS011;407;48.884;9.126;2023-08-06T11:53:26;4.32;;;0.70;;
842;SDS011;407;48.884;9.126;2023-08-06T11:55:52;4.45;;;0.90;;
842;SDS011;407;48.884;9.126;2023-08-06T11:58:18;5.03;;;1.50;;
842;SDS011;407;48.884;9.126;2023-08-06T12:00:43;4.00;;;0.70;;
842;SDS011;407;48.884;9.126;2023-08-06T12:03:12;4.15;;;0.65;;
842;SDS011;407;48.884;9.126;2023-08-06T12:05:39;4.70;;;0.90;;
842;SDS011;407;48.884;9.126;2023-08-06T12:08:05;6.57;;;1.10;;
842;SDS011;407;48.884;9.126;2023-08-06T12:10:31;4.00;;;0.90;;
842;SDS011;407;48.884;9.126;2023-08-06T12:12:57;4.70;;;1.02;;
842;SDS011;407;48.884;9.126;2023-08-06T12:15:23;6.90;;;1.17;;
842;SDS011;407;48.884;9.126;2023-08-06T12:17:49;7.40;;;1.33;;
842;SDS011;407;48.884;9.126;2023-08-06T12:20:15;4.30;;;0.80;;
842;SDS011;407;48.884;9.126;2023-08-06T12:22:40;4.95;;;1.00;;
842;SDS011;407;48.884;9.126;2023-08-06T12:25:07;4.38;;;0.90;;
842;SDS011;407;48.884;9.126;2023-08-06T12:27:37;5.00;;;1.52;;
842;SDS011;407;48.884;9.126;2023-08-06T12:30:04;4.80;;;1.02;;
842;SDS011;407;48.884;9.126;2023-08-06T12:32:31;4.30;;;0.82;;
842;SDS011;407;48.884;9.126;2023-08-06T12:34:58;4.78;;;1.13;;
842;SDS011;407;48.884;9.126;2023-08-06T12:37:25;4.23;;;0.90;;
842;SDS011;407;48.884;9.126;2023-08-06T12:39:51;6.70;;;1.33;;
842;SDS011;407;48.884;9.126;2023-08-06T12:42:16;5.07;;;1.20;;
842;SDS011;407;48.884;9.126;2023-08-06T12:44:42;4.33;;;0.80;;
842;SDS011;407;48.884;9.126;2023-08-06T12:47:08;4.57;;;1.00;;
842;SDS011;407;48.884;9.126;2023-08-06T12:49:33;4.30;;;0.90;;
842;SDS011;407;48.884;9.126;2023-08-06T12:51:59;5.30;;;0.90;;
842;SDS011;407;48.884;9.126;2023-08-06T12:54:25;4.93;;;1.10;;
842;SDS011;407;48.884;9.126;2023-08-06T12:56:51;4.63;;;0.93;;
842;SDS011;407;48.884;9.126;2023-08-06T12:59:17;4.80;;;0.80;;
842;SDS011;407;48.884;9.126;2023-08-06T13:01:46;4.70;;;0.90;;
842;SDS011;407;48.884;9.126;2023-08-06T13:04:11;5.60;;;1.10;;
842;SDS011;407;48.884;9.126;2023-08-06T13:06:37;5.07;;;0.90;;
842;SDS011;407;48.884;9.126;2023-08-06T13:09:07;4.40;;;0.90;;
842;SDS011;407;48.884;9.126;2023-08-06T13:11:34;4.15;;;0.73;;
842;SDS011;407;48.884;9.126;2023-08-06T13:14:04;4.45;;;0.88;;
842;SDS011;407;48.884;9.126;2023-08-06T13:16:32;4.82;;;0.80;;
842;SDS011;407;48.884;9.126;2023-08-06T13:18:58;5.60;;;0.90;;
842;SDS011;407;48.884;9.126;2023-08-06T13:21:24;4.20;;;0.77;;
842;SDS011;407;48.884;9.126;2023-08-06T13:23:57;4.50;;;0.70;;
842;SDS011;407;48.884;9.126;2023-08-06T13:26:22;5.32;;;0.93;;
842;SDS011;407;48.884;9.126;2023-08-06T13:28:48;4.40;;;0.60;;
842;SDS011;407;48.884;9.126;2023-08-06T13:31:14;4.90;;;0.60;;
842;SDS011;407;48.884;9.126;2023-08-06T13:33:40;4.80;;;0.60;;
842;SDS011;407;48.884;9.126;2023-08-06T13:36:05;4.20;;;0.60;;
842;SDS011;407;48.884;9.126;2023-08-06T13:38:31;4.20;;;0.50;;
842;SDS011;407;48.884;9.126;2023-08-06T13:40:56;4.00;;;0.40;;
842;SDS011;407;48.884;9.126;2023-08-06T13:43:22;4.00;;;0.40;;
842;SDS011;407;48.884;9.126;2023-08-06T13:45:49;4.05;;;0.50;;
842;SDS011;407;48.884;9.126;2023-08-06T13:48:14;4.50;;;0.80;;
842;SDS011;407;48.884;9.126;2023-08-06T13:50:40;4.20;;;0.50;;
842;SDS011;407;48.884;9.126;2023-08-06T13:53:05;4.50;;;0.60;;
842;SDS011;407;48.884;9.126;2023-08-06T13:55:31;4.30;;;0.90;;
842;SDS011;407;48.884;9.126;2023-08-06T13:57:57;4.20;;;0.60;;
842;SDS011;407;48.884;9.126;2023-08-06T14:00:22;4.30;;;0.80;;
842;SDS011;407;48.884;9.126;2023-08-06T14:02:48;4.90;;;0.70;;
842;SDS011;407;48.884;9.126;2023-08-06T14:05:13;4.40;;;0.60;;
842;SDS011;407;48.884;9.126;2023-08-06T14:07:41;7.60;;;1.10;;
842;SDS011;407;48.884;9.126;2023-08-06T14:10:07;4.50;;;0.80;;
842;SDS011;407;48.884;9.126;2023-08-06T14:12:34;4.00;;;0.43;;
842;SDS011;407;48.884;9.126;2023-08-06T14:14:59;5.40;;;1.20;;
842;SDS011;407;48.884;9.126;2023-08-06T14:17:25;4.20;;;0.90;;
842;SDS011;407;48.884;9.126;2023-08-06T14:19:50;4.70;;;0.80;;
842;SDS011;407;48.884;9.126;2023-08-06T14:22:16;4.63;;;0.87;;
842;SDS011;407;48.884;9.126;2023-08-06T14:24:42;4.77;;;0.80;;
842;SDS011;407;48.884;9.126;2023-08-06T14:27:07;4.32;;;0.90;;
842;SDS011;407;48.884;9.126;2023-08-06T14:29:33;4.40;;;0.90;;
842;SDS011;407;48.884;9.126;2023-08-06T14:31:58;4.20;;;1.00;;
842;SDS011;407;48.884;9.126;2023-08-06T14:34:24;4.20;;;0.60;;
842;SDS011;407;48.884;9.126;2023-08-06T14:36:49;4.00;;;0.60;;
842;SDS011;407;48.884;9.126;2023-08-06T14:39:18;4.50;;;1.00;;
842;SDS011;407;48.884;9.126;2023-08-06T14:41:43;4.40;;;0.70;;
842;SDS011;407;48.884;9.126;2023-08-06T14:44:09;4.20;;;0.70;;
842;SDS011;407;48.884;9.126;2023-08-06T14:46:35;4.10;;;0.70;;
842;SDS011;407;48.884;9.126;2023-08-06T14:49:01;4.10;;;0.60;;
842;SDS011;407;48.884;9.126;2023-08-06T14:51:26;4.40;;;0.90;;
842;SDS011;407;48.884;9.126;2023-08-06T14:53:52;6.28;;;0.65;;
842;SDS011;407;48.884;9.126;2023-08-06T14:56:18;4.13;;;0.70;;
842;SDS011;407;48.884;9.126;2023-08-06T14:58:44;4.53;;;0.80;;
842;SDS011;407;48.884;9.126;2023-08-06T15:01:12;4.00;;;0.70;;
842;SDS011;407;48.884;9.126;2023-08-06T15:03:37;4.60;;;0.60;;
842;SDS011;407;48.884;9.126;2023-08-06T15:06:03;3.90;;;0.52;;
842;SDS011;407;48.884;9.126;2023-08-06T15:08:28;4.10;;;0.70;;
842;SDS011;407;48.884;9.126;2023-08-06T15:10:54;4.20;;;0.60;;
842;SDS011;407;48.884;9.126;2023-08-06T15:13:20;3.92;;;0.60;;
842;SDS011;407;48.884;9.126;2023-08-06T15:15:46;5.10;;;0.50;;
842;SDS011;407;48.884;9.126;2023-08-06T15:18:12;4.10;;;0.60;;
842;SDS011;407;48.884;9.126;2023-08-06T15:20:38;5.00;;;0.50;;
842;SDS011;407;48.884;9.126;2023-08-06T15:23:05;5.97;;;1.00;;
842;SDS011;407;48.884;9.126;2023-08-06T15:25:31;4.00;;;0.60;;
842;SDS011;407;48.884;9.126;2023-08-06T15:27:56;4.20;;;0.60;;
842;SDS011;407;48.884;9.126;2023-08-06T15:30:22;4.20;;;0.60;;
842;SDS011;407;48.884;9.126;2023-08-06T15:38:45;4.30;;;0.95;;
842;SDS011;407;48.884;9.126;2023-08-06T15:41:11;4.20;;;0.70;;
842;SDS011;407;48.884;9.126;2023-08-06T15:43:36;4.13;;;0.70;;
842;SDS011;407;48.884;9.126;2023-08-06T15:46:02;6.50;;;0.80;;
842;SDS011;407;48.884;9.126;2023-08-06T15:48:27;4.47;;;0.60;;
842;SDS011;407;48.884;9.126;2023-08-06T15:50:55;4.20;;;0.63;;
842;SDS011;407;48.884;9.126;2023-08-06T15:53:22;4.13;;;0.60;;
842;SDS011;407;48.884;9.126;2023-08-06T15:55:48;4.22;;;0.60;;